createdAt,value
2018-09-27T00:01:28.480Z,1.70
2018-09-27T00:03:56.570Z,1.80
2018-09-27T00:06:24.621Z,2.00
2018-09-27T00:08:52.698Z,2.07
2018-09-27T00:11:20.740Z,1.90
2018-09-27T00:13:48.817Z,2.13
2018-09-27T00:16:16.912Z,2.30
2018-09-27T00:18:45.081Z,2.00
2018-09-27T00:21:13.234Z,2.10
2018-09-27T00:23:41.397Z,2.07
2018-09-27T00:26:09.542Z,2.20
2018-09-27T00:28:37.683Z,2.27
2018-09-27T00:31:05.912Z,2.33
2018-09-27T00:33:34.026Z,2.07
2018-09-27T00:36:02.112Z,2.50
2018-09-27T00:38:30.185Z,2.33
2018-09-27T00:40:58.249Z,2.30
2018-09-27T00:43:26.350Z,2.00
2018-09-27T00:45:54.464Z,2.67
2018-09-27T00:48:22.519Z,2.60
2018-09-27T00:50:50.616Z,2.27
2018-09-27T00:53:18.703Z,2.33
2018-09-27T00:55:46.758Z,2.73
2018-09-27T00:58:14.906Z,2.17
2018-09-27T01:00:43.091Z,2.40
2018-09-27T01:03:11.170Z,2.20
2018-09-27T01:05:39.248Z,2.53
2018-09-27T01:08:07.335Z,2.37
2018-09-27T01:10:35.512Z,2.30
2018-09-27T01:13:03.623Z,2.37
2018-09-27T01:15:31.664Z,2.67
2018-09-27T01:17:59.771Z,2.30
2018-09-27T01:20:27.907Z,2.73
2018-09-27T01:22:56.009Z,2.73
2018-09-27T01:25:24.106Z,2.50
2018-09-27T01:27:52.231Z,2.60
2018-09-27T01:30:20.348Z,2.30
2018-09-27T01:32:48.409Z,2.30
2018-09-27T01:35:16.507Z,2.60
2018-09-27T01:37:44.556Z,2.50
2018-09-27T01:40:12.643Z,2.63
2018-09-27T01:42:40.701Z,2.90
2018-09-27T01:45:08.771Z,2.60
2018-09-27T01:47:36.807Z,2.63
2018-09-27T01:50:04.930Z,3.00
2018-09-27T01:52:32.991Z,2.70
2018-09-27T01:55:01.066Z,3.27
2018-09-27T01:57:29.115Z,3.00
2018-09-27T01:59:57.217Z,3.07
2018-09-27T02:02:25.256Z,2.80
2018-09-27T02:04:53.342Z,3.60
2018-09-27T02:07:21.393Z,3.03
2018-09-27T02:09:49.530Z,3.00
2018-09-27T02:12:17.620Z,2.83
2018-09-27T02:14:45.716Z,3.23
2018-09-27T02:17:13.767Z,3.50
2018-09-27T02:19:42.044Z,3.50
2018-09-27T02:22:10.112Z,3.60
2018-09-27T02:24:38.195Z,3.50
2018-09-27T02:27:06.284Z,3.30
2018-09-27T02:29:34.355Z,3.63
2018-09-27T02:32:02.414Z,3.43
2018-09-27T02:34:30.602Z,3.40
2018-09-27T02:36:58.747Z,3.40
2018-09-27T02:39:26.828Z,3.37
2018-09-27T02:41:54.899Z,3.90
2018-09-27T02:44:22.980Z,3.60
2018-09-27T02:46:51.049Z,3.23
2018-09-27T02:49:19.171Z,3.50
2018-09-27T02:51:47.192Z,3.87
2018-09-27T02:54:15.267Z,3.70
2018-09-27T02:56:43.611Z,4.07
2018-09-27T02:59:11.685Z,3.63
2018-09-27T03:01:39.727Z,3.80
2018-09-27T03:04:07.757Z,4.20
2018-09-27T03:06:35.817Z,3.93
2018-09-27T03:09:05.909Z,3.77
2018-09-27T03:11:34.082Z,3.47
2018-09-27T03:14:02.215Z,3.97
2018-09-27T03:16:30.274Z,3.83
2018-09-27T03:18:58.409Z,4.20
2018-09-27T03:21:26.499Z,3.80
2018-09-27T03:23:54.572Z,4.00
2018-09-27T03:26:22.665Z,3.73
2018-09-27T03:28:50.731Z,3.83
2018-09-27T03:31:18.804Z,3.43
2018-09-27T03:33:46.866Z,4.23
2018-09-27T03:36:14.941Z,4.10
2018-09-27T03:38:43.030Z,3.93
2018-09-27T03:41:11.086Z,3.83
2018-09-27T03:43:39.193Z,4.07
2018-09-27T03:46:07.232Z,3.87
2018-09-27T03:48:35.294Z,3.90
2018-09-27T03:51:03.371Z,4.10
2018-09-27T03:53:31.448Z,4.27
2018-09-27T03:55:59.531Z,4.23
2018-09-27T03:58:27.624Z,3.77
2018-09-27T04:00:55.716Z,3.93
2018-09-27T04:03:23.807Z,3.87
2018-09-27T04:05:51.872Z,3.80
2018-09-27T04:08:19.953Z,4.17
2018-09-27T04:10:48.044Z,3.83
2018-09-27T04:13:16.123Z,3.90
2018-09-27T04:15:44.297Z,4.00
2018-09-27T04:18:12.341Z,3.90
2018-09-27T04:20:50.894Z,3.50
2018-09-27T04:23:20.522Z,4.47
2018-09-27T04:25:48.812Z,3.93
2018-09-27T04:28:16.967Z,4.17
2018-09-27T04:30:47.815Z,4.10
2018-09-27T04:33:15.921Z,3.90
2018-09-27T04:35:43.990Z,4.03
2018-09-27T04:38:12.065Z,4.23
2018-09-27T04:40:40.208Z,4.87
2018-09-27T04:43:08.280Z,4.37
2018-09-27T04:45:36.372Z,4.33
2018-09-27T04:48:04.426Z,4.23
2018-09-27T04:50:32.599Z,4.53
2018-09-27T04:53:00.675Z,4.33
2018-09-27T04:55:28.780Z,4.50
2018-09-27T04:57:56.876Z,4.57
2018-09-27T05:00:24.946Z,4.07
2018-09-27T05:02:53.044Z,4.30
2018-09-27T05:05:21.128Z,4.33
2018-09-27T05:07:49.205Z,4.03
2018-09-27T05:10:17.391Z,4.47
2018-09-27T05:12:45.492Z,3.60
2018-09-27T05:15:13.573Z,4.23
2018-09-27T05:17:41.635Z,4.03
2018-09-27T05:20:09.701Z,4.67
2018-09-27T05:22:37.906Z,4.13
2018-09-27T05:25:06.100Z,4.10
2018-09-27T05:27:34.242Z,3.77
2018-09-27T05:30:02.321Z,4.53
2018-09-27T05:32:30.406Z,4.13
2018-09-27T05:34:58.508Z,4.43
2018-09-27T05:37:26.648Z,3.90
2018-09-27T05:39:54.727Z,3.97
2018-09-27T05:42:22.794Z,4.20
2018-09-27T05:44:50.926Z,5.13
2018-09-27T05:47:19.031Z,5.00
2018-09-27T05:49:47.128Z,3.80
2018-09-27T05:52:15.220Z,4.07
2018-09-27T05:54:43.318Z,3.93
2018-09-27T05:57:11.405Z,3.60
2018-09-27T05:59:39.504Z,3.63
2018-09-27T06:02:07.671Z,3.73
2018-09-27T06:04:35.709Z,3.67
2018-09-27T06:07:03.813Z,6.90
2018-09-27T06:09:31.929Z,3.83
2018-09-27T06:12:00.009Z,3.87
2018-09-27T06:14:28.081Z,4.00
2018-09-27T06:16:56.217Z,4.17
2018-09-27T06:19:24.376Z,4.70
2018-09-27T06:21:52.394Z,3.70
2018-09-27T06:24:20.497Z,4.53
2018-09-27T06:26:48.639Z,3.93
2018-09-27T06:29:16.708Z,3.57
2018-09-27T06:31:44.778Z,3.80
2018-09-27T06:34:12.845Z,3.73
2018-09-27T06:36:40.970Z,4.10
2018-09-27T06:39:10.184Z,3.90
2018-09-27T06:41:38.296Z,4.10
2018-09-27T06:44:06.394Z,3.70
2018-09-27T06:46:34.630Z,3.73
2018-09-27T06:49:03.100Z,3.30
2018-09-27T06:51:31.170Z,3.60
2018-09-27T06:53:59.238Z,4.30
2018-09-27T06:56:27.416Z,3.47
2018-09-27T06:58:55.499Z,4.00
2018-09-27T07:01:23.588Z,3.57
2018-09-27T07:03:51.688Z,3.90
2018-09-27T07:06:19.786Z,3.80
2018-09-27T07:08:47.895Z,4.20
2018-09-27T07:11:15.964Z,3.90
2018-09-27T07:13:44.051Z,3.90
2018-09-27T07:16:12.143Z,3.90
2018-09-27T07:18:40.242Z,4.07
2018-09-27T07:21:08.292Z,4.40
2018-09-27T07:23:36.366Z,4.07
2018-09-27T07:26:04.583Z,4.23
2018-09-27T07:28:32.755Z,4.10
2018-09-27T07:31:00.849Z,4.27
2018-09-27T07:33:28.973Z,4.20
2018-09-27T07:35:57.089Z,3.90
2018-09-27T07:38:25.295Z,3.80
2018-09-27T07:40:53.365Z,4.07
2018-09-27T07:43:21.412Z,3.77
2018-09-27T07:45:49.475Z,3.67
2018-09-27T07:48:17.544Z,3.87
2018-09-27T07:50:45.647Z,4.20
2018-09-27T07:53:13.800Z,4.03
2018-09-27T07:55:42.163Z,4.00
2018-09-27T07:58:10.284Z,4.37
2018-09-27T08:00:38.487Z,4.53
2018-09-27T08:03:06.659Z,4.37
2018-09-27T08:05:34.712Z,4.50
2018-09-27T08:08:02.843Z,4.27
2018-09-27T08:10:30.910Z,4.70
2018-09-27T08:12:59.008Z,4.50
2018-09-27T08:15:27.081Z,5.00
2018-09-27T08:17:55.156Z,4.77
2018-09-27T08:20:23.287Z,4.47
2018-09-27T08:22:51.359Z,4.70
2018-09-27T08:25:19.450Z,4.20
2018-09-27T08:27:47.520Z,4.30
2018-09-27T08:30:15.578Z,4.00
2018-09-27T08:32:43.805Z,4.53
2018-09-27T08:35:11.715Z,4.73
2018-09-27T08:37:39.792Z,4.20
2018-09-27T08:40:07.876Z,4.10
2018-09-27T08:42:35.968Z,4.10
2018-09-27T08:45:04.272Z,4.53
2018-09-27T08:47:32.255Z,4.17
2018-09-27T08:50:00.357Z,4.30
2018-09-27T08:52:28.461Z,4.20
2018-09-27T08:54:56.513Z,4.33
2018-09-27T08:57:24.633Z,4.07
2018-09-27T08:59:52.712Z,4.13
2018-09-27T09:02:20.832Z,4.33
2018-09-27T09:04:48.909Z,4.60
2018-09-27T09:07:16.970Z,3.97
2018-09-27T09:09:45.140Z,4.10
2018-09-27T09:12:13.499Z,3.90
2018-09-27T09:14:41.480Z,4.03
2018-09-27T09:17:09.560Z,4.03
2018-09-27T09:19:37.671Z,3.63
2018-09-27T09:22:05.780Z,3.67
2018-09-27T09:24:33.885Z,3.47
2018-09-27T09:27:01.991Z,3.50
2018-09-27T09:29:30.095Z,3.57
2018-09-27T09:31:58.124Z,2.80
2018-09-27T09:34:26.220Z,3.97
2018-09-27T09:36:54.279Z,3.63
2018-09-27T09:39:22.566Z,3.67
2018-09-27T09:41:50.660Z,3.40
2018-09-27T09:44:18.746Z,3.17
2018-09-27T09:46:46.827Z,2.87
2018-09-27T09:49:14.892Z,3.10
2018-09-27T09:51:42.995Z,2.80
2018-09-27T09:54:11.108Z,3.07
2018-09-27T09:56:39.206Z,3.07
2018-09-27T09:59:07.293Z,3.23
2018-09-27T10:01:35.371Z,3.40
2018-09-27T10:04:03.509Z,3.17
2018-09-27T10:06:31.580Z,3.00
2018-09-27T10:08:59.700Z,3.13
2018-09-27T10:11:27.868Z,2.57
2018-09-27T10:13:55.947Z,2.63
2018-09-27T10:16:23.997Z,2.63
2018-09-27T10:18:52.080Z,2.67
2018-09-27T10:21:20.160Z,2.60
2018-09-27T10:23:48.283Z,2.10
2018-09-27T10:26:16.352Z,2.03
2018-09-27T10:28:44.444Z,2.30
2018-09-27T10:31:12.546Z,1.90
2018-09-27T10:33:40.640Z,2.20
2018-09-27T10:36:08.702Z,2.10
2018-09-27T10:38:36.775Z,2.10
2018-09-27T10:41:04.842Z,2.30
2018-09-27T10:43:32.890Z,2.10
2018-09-27T10:46:00.972Z,2.00
2018-09-27T10:48:29.044Z,2.30
2018-09-27T10:50:57.115Z,2.00
2018-09-27T10:53:25.198Z,1.90
2018-09-27T10:55:53.288Z,2.07
2018-09-27T10:58:21.343Z,1.97
2018-09-27T11:00:49.468Z,2.10
2018-09-27T11:03:17.578Z,1.90
2018-09-27T11:05:45.799Z,1.90
2018-09-27T11:08:13.760Z,1.80
2018-09-27T11:10:41.852Z,1.80
2018-09-27T11:13:09.920Z,1.77
2018-09-27T11:15:38.006Z,1.43
2018-09-27T11:18:06.204Z,1.70
2018-09-27T11:20:34.280Z,1.40
2018-09-27T11:23:02.418Z,1.80
2018-09-27T11:25:30.496Z,1.20
2018-09-27T11:27:58.606Z,1.60
2018-09-27T11:30:29.881Z,1.20
2018-09-27T11:32:58.249Z,1.33
2018-09-27T11:35:26.370Z,1.50
2018-09-27T11:37:54.484Z,1.50
2018-09-27T11:40:22.588Z,1.67
2018-09-27T11:42:50.774Z,2.00
2018-09-27T11:45:18.860Z,1.80
2018-09-27T11:47:46.938Z,1.63
2018-09-27T11:50:15.136Z,2.00
2018-09-27T11:52:43.173Z,1.80
2018-09-27T11:55:11.795Z,1.60
2018-09-27T11:57:40.042Z,1.70
2018-09-27T12:00:08.719Z,1.60
2018-09-27T12:02:36.842Z,1.53
2018-09-27T12:05:05.100Z,1.70
2018-09-27T12:07:33.479Z,1.80
2018-09-27T12:10:01.686Z,2.00
2018-09-27T12:12:29.754Z,1.70
2018-09-27T12:14:57.904Z,1.50
2018-09-27T12:17:26.070Z,1.73
2018-09-27T12:19:54.121Z,1.60
2018-09-27T12:22:22.199Z,1.50
2018-09-27T12:24:50.596Z,1.40
2018-09-27T12:27:19.039Z,1.50
2018-09-27T12:29:47.093Z,1.67
2018-09-27T12:32:15.167Z,1.63
2018-09-27T12:34:43.203Z,1.60
2018-09-27T12:37:11.294Z,1.63
2018-09-27T12:39:39.315Z,1.73
2018-09-27T12:42:07.589Z,1.63
2018-09-27T12:44:35.686Z,1.60
2018-09-27T12:47:03.783Z,1.80
2018-09-27T12:49:31.841Z,1.93
2018-09-27T12:51:59.962Z,1.80
2018-09-27T12:54:28.160Z,1.90
2018-09-27T12:56:56.272Z,1.87
2018-09-27T12:59:24.346Z,1.77
2018-09-27T13:01:52.496Z,1.90
2018-09-27T13:04:20.476Z,1.93
2018-09-27T13:06:48.614Z,1.67
2018-09-27T13:09:16.748Z,1.80
2018-09-27T13:11:44.809Z,2.20
2018-09-27T13:14:12.872Z,2.20
2018-09-27T13:16:41.641Z,1.80
2018-09-27T13:19:10.202Z,2.07
2018-09-27T13:21:38.672Z,2.10
2018-09-27T13:24:06.909Z,2.00
2018-09-27T13:26:35.445Z,2.10
2018-09-27T13:29:03.581Z,2.10
2018-09-27T13:31:31.691Z,2.00
2018-09-27T13:33:59.804Z,1.87
2018-09-27T13:36:27.927Z,2.10
2018-09-27T13:38:56.006Z,2.10
2018-09-27T13:41:24.276Z,2.10
2018-09-27T13:43:52.341Z,1.90
2018-09-27T13:46:20.484Z,2.20
2018-09-27T13:48:48.528Z,2.17
2018-09-27T13:51:16.643Z,2.50
2018-09-27T13:53:44.711Z,2.30
2018-09-27T13:56:12.813Z,2.53
2018-09-27T13:58:40.836Z,2.17
2018-09-27T14:01:09.019Z,2.40
2018-09-27T14:03:37.047Z,2.30
2018-09-27T14:06:05.222Z,2.40
2018-09-27T14:08:33.260Z,3.07
2018-09-27T14:11:01.406Z,2.37
2018-09-27T14:13:29.476Z,2.60
2018-09-27T14:15:57.599Z,2.53
2018-09-27T14:18:25.654Z,2.90
2018-09-27T14:20:53.746Z,3.20
2018-09-27T14:23:21.814Z,3.40
2018-09-27T14:25:49.923Z,3.23
2018-09-27T14:28:18.095Z,2.70
2018-09-27T14:30:46.219Z,3.07
2018-09-27T14:33:14.235Z,4.47
2018-09-27T14:35:42.327Z,2.87
2018-09-27T14:38:10.436Z,2.57
2018-09-27T14:40:45.407Z,2.60
2018-09-27T14:43:13.528Z,2.83
2018-09-27T14:45:41.666Z,3.13
2018-09-27T14:48:09.756Z,3.73
2018-09-27T14:50:37.850Z,2.87
2018-09-27T14:53:05.949Z,2.87
2018-09-27T14:55:34.012Z,2.80
2018-09-27T14:58:02.088Z,2.80
2018-09-27T15:00:30.219Z,2.80
2018-09-27T15:02:58.288Z,2.57
2018-09-27T15:05:26.340Z,2.60
2018-09-27T15:07:54.456Z,2.60
2018-09-27T15:10:22.652Z,2.37
2018-09-27T15:12:50.659Z,3.10
2018-09-27T15:15:18.739Z,2.60
2018-09-27T15:17:46.829Z,2.83
2018-09-27T15:20:14.922Z,2.70
2018-09-27T15:22:43.120Z,2.60
2018-09-27T15:25:11.127Z,2.77
2018-09-27T15:27:39.244Z,3.00
2018-09-27T15:30:07.302Z,3.20
2018-09-27T15:32:35.389Z,2.60
2018-09-27T15:35:04.578Z,2.53
2018-09-27T15:37:32.849Z,2.90
2018-09-27T15:40:01.020Z,2.90
2018-09-27T15:42:29.091Z,3.03
2018-09-27T15:44:57.152Z,2.70
2018-09-27T15:47:25.247Z,3.23
2018-09-27T15:49:53.340Z,3.07
2018-09-27T15:52:21.560Z,3.60
2018-09-27T15:54:49.628Z,3.77
2018-09-27T15:57:17.690Z,3.70
2018-09-27T15:59:45.822Z,3.40
2018-09-27T16:02:13.918Z,3.63
2018-09-27T16:04:42.033Z,3.50
2018-09-27T16:07:10.192Z,3.70
2018-09-27T16:09:38.268Z,3.53
2018-09-27T16:12:06.386Z,3.70
2018-09-27T16:14:34.507Z,3.57
2018-09-27T16:17:02.604Z,3.43
2018-09-27T16:19:30.678Z,4.10
2018-09-27T16:21:58.785Z,3.80
2018-09-27T16:24:26.947Z,3.80
2018-09-27T16:26:55.067Z,3.80
2018-09-27T16:29:23.188Z,3.80
2018-09-27T16:31:51.244Z,4.07
2018-09-27T16:34:19.434Z,4.30
2018-09-27T16:36:47.567Z,3.63
2018-09-27T16:39:16.737Z,3.63
2018-09-27T16:41:44.901Z,3.60
2018-09-27T16:44:13.022Z,3.70
2018-09-27T16:46:41.119Z,3.60
2018-09-27T16:49:09.356Z,4.47
2018-09-27T16:51:37.345Z,4.43
2018-09-27T16:54:05.718Z,4.50
2018-09-27T16:56:33.817Z,3.97
2018-09-27T16:59:01.947Z,4.57
2018-09-27T17:01:30.019Z,5.07
2018-09-27T17:03:58.139Z,4.10
2018-09-27T17:06:26.243Z,4.27
2018-09-27T17:08:54.353Z,4.20
2018-09-27T17:11:22.429Z,4.13
2018-09-27T17:13:50.921Z,4.30
2018-09-27T17:16:19.628Z,4.03
2018-09-27T17:18:47.850Z,4.33
2018-09-27T17:21:15.982Z,4.53
2018-09-27T17:23:44.297Z,4.30
2018-09-27T17:26:12.443Z,4.33
2018-09-27T17:28:40.933Z,4.30
2018-09-27T17:31:09.249Z,4.23
2018-09-27T17:33:37.347Z,4.07
2018-09-27T17:36:05.520Z,4.20
2018-09-27T17:38:34.559Z,3.90
2018-09-27T17:41:02.665Z,4.10
2018-09-27T17:43:30.764Z,4.00
2018-09-27T17:45:58.950Z,4.40
2018-09-27T17:48:26.980Z,4.57
2018-09-27T17:50:55.156Z,5.43
2018-09-27T17:53:23.435Z,5.00
2018-09-27T17:55:51.363Z,5.20
2018-09-27T17:58:19.444Z,5.10
2018-09-27T18:00:47.835Z,6.50
2018-09-27T18:03:16.097Z,5.30
2018-09-27T18:05:44.505Z,4.60
2018-09-27T18:08:12.495Z,4.53
2018-09-27T18:10:40.652Z,4.43
2018-09-27T18:13:08.799Z,4.63
2018-09-27T18:15:36.916Z,4.53
2018-09-27T18:18:05.027Z,4.33
2018-09-27T18:20:33.128Z,4.43
2018-09-27T18:23:01.250Z,4.03
2018-09-27T18:25:29.441Z,4.70
2018-09-27T18:27:57.540Z,4.63
2018-09-27T18:30:25.712Z,4.23
2018-09-27T18:32:53.811Z,4.27
2018-09-27T18:35:21.918Z,3.70
2018-09-27T18:37:51.003Z,4.10
2018-09-27T18:40:19.196Z,4.30
2018-09-27T18:42:47.301Z,4.00
2018-09-27T18:45:15.392Z,3.77
2018-09-27T18:47:43.464Z,3.80
2018-09-27T18:50:11.797Z,4.03
2018-09-27T18:52:39.866Z,4.10
2018-09-27T18:55:08.114Z,5.97
2018-09-27T18:57:36.215Z,4.50
2018-09-27T19:00:04.594Z,4.13
2018-09-27T19:02:32.666Z,4.13
2018-09-27T19:05:00.708Z,4.50
2018-09-27T19:07:28.808Z,4.47
2018-09-27T19:09:56.898Z,4.90
2018-09-27T19:12:25.055Z,4.30
2018-09-27T19:14:53.247Z,3.43
2018-09-27T19:17:21.368Z,3.83
2018-09-27T19:19:49.430Z,4.23
2018-09-27T19:22:17.511Z,9.40
2018-09-27T19:24:45.618Z,4.20
2018-09-27T19:27:13.750Z,4.00
2018-09-27T19:29:42.052Z,3.50
2018-09-27T19:32:10.098Z,3.70
2018-09-27T19:34:38.168Z,3.50
2018-09-27T19:37:06.261Z,3.80
2018-09-27T19:39:34.417Z,3.27
2018-09-27T19:42:02.505Z,3.43
2018-09-27T19:44:30.672Z,3.37
2018-09-27T19:46:58.880Z,3.80
2018-09-27T19:49:26.957Z,3.63
2018-09-27T19:51:55.023Z,3.97
2018-09-27T19:54:23.538Z,4.00
2018-09-27T19:56:51.847Z,3.57
2018-09-27T19:59:19.996Z,3.63
2018-09-27T20:01:48.191Z,3.90
2018-09-27T20:04:16.565Z,4.07
2018-09-27T20:06:44.582Z,3.93
2018-09-27T20:09:13.774Z,3.63
2018-09-27T20:11:42.267Z,3.73
2018-09-27T20:14:10.683Z,3.47
2018-09-27T20:16:39.084Z,3.60
2018-09-27T20:19:07.395Z,3.60
2018-09-27T20:21:35.532Z,3.77
2018-09-27T20:24:03.768Z,3.60
2018-09-27T20:26:31.881Z,3.43
2018-09-27T20:29:00.020Z,3.70
2018-09-27T20:31:28.199Z,3.57
2018-09-27T20:33:56.362Z,3.67
2018-09-27T20:36:24.437Z,3.60
2018-09-27T20:38:52.504Z,3.30
2018-09-27T20:41:21.031Z,3.53
2018-09-27T20:43:49.119Z,3.67
2018-09-27T20:46:18.255Z,3.60
2018-09-27T20:48:46.378Z,3.80
2018-09-27T20:51:14.462Z,3.57
2018-09-27T20:53:43.822Z,3.70
2018-09-27T20:56:11.957Z,3.70
2018-09-27T20:58:40.028Z,4.00
2018-09-27T21:01:08.133Z,3.50
2018-09-27T21:03:36.230Z,3.67
2018-09-27T21:06:04.363Z,4.40
2018-09-27T21:08:32.555Z,3.87
2018-09-27T21:11:00.620Z,3.70
2018-09-27T21:13:28.723Z,3.87
2018-09-27T21:15:56.795Z,3.60
2018-09-27T21:18:24.871Z,4.17
2018-09-27T21:20:52.945Z,4.03
2018-09-27T21:23:21.029Z,3.80
2018-09-27T21:25:49.125Z,4.13
2018-09-27T21:28:17.465Z,4.37
2018-09-27T21:30:45.548Z,3.83
2018-09-27T21:33:13.623Z,3.70
2018-09-27T21:35:41.768Z,3.80
2018-09-27T21:38:09.842Z,3.70
2018-09-27T21:40:38.033Z,4.30
2018-09-27T21:43:06.509Z,3.73
2018-09-27T21:45:34.543Z,3.53
2018-09-27T21:48:02.628Z,3.50
2018-09-27T21:50:30.712Z,4.17
2018-09-27T21:52:58.828Z,3.80
2018-09-27T21:55:26.980Z,3.70
2018-09-27T21:57:55.044Z,4.17
2018-09-27T22:00:23.136Z,4.43
2018-09-27T22:02:51.236Z,3.80
2018-09-27T22:05:19.285Z,3.60
2018-09-27T22:07:47.411Z,3.93
2018-09-27T22:10:15.485Z,4.00
2018-09-27T22:12:43.832Z,3.70
2018-09-27T22:15:11.960Z,3.83
2018-09-27T22:17:40.095Z,3.47
2018-09-27T22:20:08.210Z,3.70
2018-09-27T22:22:36.254Z,3.77
2018-09-27T22:25:04.349Z,3.80
2018-09-27T22:27:32.422Z,3.93
2018-09-27T22:30:00.488Z,3.63
2018-09-27T22:32:28.740Z,3.83
2018-09-27T22:34:56.917Z,4.03
2018-09-27T22:37:25.057Z,3.57
2018-09-27T22:39:53.152Z,3.83
2018-09-27T22:42:21.240Z,3.60
2018-09-27T22:44:49.348Z,3.63
2018-09-27T22:47:17.520Z,4.07
2018-09-27T22:49:45.658Z,3.57
2018-09-27T22:52:13.760Z,4.03
2018-09-27T22:54:41.853Z,4.03
2018-09-27T22:57:09.974Z,4.10
2018-09-27T22:59:38.040Z,3.93
2018-09-27T23:02:06.115Z,3.77
2018-09-27T23:04:34.215Z,4.00
2018-09-27T23:07:02.309Z,3.93
2018-09-27T23:09:30.358Z,3.93
2018-09-27T23:11:58.533Z,3.80
2018-09-27T23:14:26.648Z,3.37
2018-09-27T23:16:54.754Z,3.80
2018-09-27T23:19:22.921Z,3.83
2018-09-27T23:21:51.033Z,3.93
2018-09-27T23:24:19.169Z,3.80
2018-09-27T23:26:47.210Z,3.87
2018-09-27T23:29:15.308Z,3.70
2018-09-27T23:31:43.395Z,3.97
2018-09-27T23:34:11.487Z,3.73
2018-09-27T23:36:39.604Z,3.80
2018-09-27T23:39:08.520Z,3.83
2018-09-27T23:41:36.748Z,4.07
2018-09-27T23:44:04.841Z,4.23
2018-09-27T23:46:32.913Z,3.80
2018-09-27T23:49:01.048Z,4.13
2018-09-27T23:51:29.262Z,3.70
2018-09-27T23:53:57.549Z,3.97
2018-09-27T23:56:25.643Z,3.63
2018-09-27T23:58:53.745Z,3.73
